Roedersville, Pennsylvania
Current Conditions -  °F | °C
As of 4:58 PM on Friday 24 Oct 2014 (Local Time) from KMUI Reporting Station
Clear Clear  
Wind Chill: 66°   Ceiling: Unl
Heat Index: 66°   Visibility: 10mi
Dew Point: 32°   Wind: 10mph
Humidity: 29%   Direction: 300°WNW
Pressure: 29.85"   Gusts: 21mph
Location:  40.5592°N, 76.3347°W
Report Text: KMUI 242058Z AUTO 30009G18KT 280V360 10SM CLR 19/00 A2985 RMK AO2 SLP110 T01880001 55006 $
Loading
Personal Weather Stations






























Interactive Weather Map
Tropical Storm Tracking
New forecast layout! Learn more

10-Day Weather Forecast

Advertisements
Track Severe Weather on mobile